createdAt,value
2023-04-26T00:01:07.246Z,5.30
2023-04-26T00:03:34.742Z,5.40
2023-04-26T00:06:05.766Z,5.30
2023-04-26T00:08:33.263Z,5.30
2023-04-26T00:11:00.630Z,5.30
2023-04-26T00:13:27.981Z,5.30
2023-04-26T00:15:55.288Z,5.30
2023-04-26T00:18:22.581Z,5.30
2023-04-26T00:20:49.930Z,5.30
2023-04-26T00:23:17.537Z,5.20
2023-04-26T00:25:44.811Z,5.20
2023-04-26T00:28:12.802Z,5.20
2023-04-26T00:30:42.518Z,5.10
2023-04-26T00:33:09.849Z,5.10
2023-04-26T00:35:38.490Z,5.10
2023-04-26T00:38:05.686Z,5.00
2023-04-26T00:40:36.277Z,5.00
2023-04-26T00:43:04.572Z,5.00
2023-04-26T00:45:32.417Z,5.00
2023-04-26T00:48:03.724Z,5.00
2023-04-26T00:50:32.033Z,5.00
2023-04-26T00:53:00.806Z,5.00
2023-04-26T00:55:28.184Z,5.00
2023-04-26T00:57:55.748Z,4.90
2023-04-26T01:00:23.143Z,4.80
2023-04-26T01:02:51.427Z,4.80
2023-04-26T01:05:19.097Z,4.80
2023-04-26T01:07:47.161Z,4.80
2023-04-26T01:10:14.423Z,4.80
2023-04-26T01:12:41.749Z,4.80
2023-04-26T01:15:10.960Z,4.80
2023-04-26T01:17:42.123Z,4.80
2023-04-26T01:20:11.486Z,4.80
2023-04-26T01:22:38.801Z,4.70
2023-04-26T01:25:09.801Z,4.70
2023-04-26T01:27:37.254Z,4.70
2023-04-26T01:30:05.748Z,4.70
2023-04-26T01:32:32.991Z,4.60
2023-04-26T01:35:01.204Z,4.60
2023-04-26T01:37:28.568Z,4.60
2023-04-26T01:39:56.114Z,4.50
2023-04-26T01:42:23.548Z,4.50
2023-04-26T01:44:51.714Z,4.40
2023-04-26T01:47:19.619Z,4.30
2023-04-26T01:49:47.160Z,4.30
2023-04-26T01:52:14.932Z,4.30
2023-04-26T01:54:42.475Z,4.20
2023-04-26T01:57:10.418Z,4.20
2023-04-26T01:59:37.649Z,4.20
2023-04-26T02:02:05.821Z,4.20
2023-04-26T02:04:33.338Z,4.20
2023-04-26T02:07:00.555Z,4.20
2023-04-26T02:09:28.008Z,4.10
2023-04-26T02:11:55.183Z,4.10
2023-04-26T02:14:22.325Z,4.00
2023-04-26T02:16:49.556Z,3.90
2023-04-26T02:19:16.779Z,3.90
2023-04-26T02:21:54.780Z,3.90
2023-04-26T02:24:22.429Z,4.00
2023-04-26T02:26:49.812Z,3.90
2023-04-26T02:29:17.105Z,3.80
2023-04-26T02:31:44.416Z,3.80
2023-04-26T02:34:12.879Z,3.80
2023-04-26T02:36:40.570Z,3.80
2023-04-26T02:39:07.974Z,3.70
2023-04-26T02:41:35.195Z,3.80
2023-04-26T02:44:02.468Z,3.80
2023-04-26T02:46:30.059Z,3.80
2023-04-26T02:48:57.293Z,3.90
2023-04-26T02:51:24.910Z,3.80
2023-04-26T02:53:52.181Z,3.80
2023-04-26T02:56:19.978Z,3.80
2023-04-26T02:58:47.680Z,3.80
2023-04-26T03:01:15.465Z,3.80
2023-04-26T03:03:43.594Z,3.80
2023-04-26T03:06:14.419Z,3.70
2023-04-26T03:08:42.130Z,3.70
2023-04-26T03:11:09.360Z,3.80
2023-04-26T03:13:37.902Z,3.70
2023-04-26T03:16:05.456Z,3.70
2023-04-26T03:18:32.728Z,3.80
2023-04-26T03:21:00.067Z,3.80
2023-04-26T03:23:29.015Z,3.80
2023-04-26T03:25:56.641Z,3.80
2023-04-26T03:28:24.173Z,3.80
2023-04-26T03:30:52.049Z,3.70
2023-04-26T03:33:19.339Z,3.70
2023-04-26T03:35:49.491Z,3.80
2023-04-26T03:38:19.411Z,3.70
2023-04-26T03:40:46.948Z,3.70
2023-04-26T03:43:14.135Z,3.70
2023-04-26T03:45:41.624Z,3.70
2023-04-26T03:48:09.164Z,3.80
2023-04-26T03:50:36.688Z,3.70
2023-04-26T03:53:04.139Z,3.80
2023-04-26T03:55:31.483Z,3.80
2023-04-26T03:57:59.082Z,3.80
2023-04-26T04:00:29.349Z,3.80
2023-04-26T04:02:56.931Z,3.80
2023-04-26T04:05:25.083Z,3.90
2023-04-26T04:07:52.953Z,3.80
2023-04-26T04:10:20.243Z,3.80
2023-04-26T04:12:47.683Z,3.90
2023-04-26T04:15:15.461Z,3.90
2023-04-26T04:17:42.991Z,4.00
2023-04-26T04:20:11.402Z,4.20
2023-04-26T04:22:42.010Z,4.20
2023-04-26T04:25:14.375Z,4.20
2023-04-26T04:27:48.605Z,4.40
2023-04-26T04:30:16.625Z,4.40
2023-04-26T04:32:45.397Z,4.40
2023-04-26T04:35:13.504Z,4.60
2023-04-26T04:37:40.724Z,4.60
2023-04-26T04:40:11.967Z,4.60
2023-04-26T04:42:39.410Z,4.70
2023-04-26T04:45:07.434Z,4.70
2023-04-26T04:47:38.115Z,4.80
2023-04-26T04:50:07.349Z,4.80
2023-04-26T04:52:34.906Z,4.80
2023-04-26T04:55:02.266Z,5.00
2023-04-26T04:57:30.039Z,5.00
2023-04-26T04:59:58.275Z,5.10
2023-04-26T05:02:26.840Z,5.20
2023-04-26T05:04:54.918Z,5.30
2023-04-26T05:07:24.517Z,5.30
2023-04-26T05:09:51.947Z,5.40
2023-04-26T05:12:19.185Z,5.50
2023-04-26T05:14:46.409Z,5.60
2023-04-26T05:17:13.618Z,5.70
2023-04-26T05:19:43.416Z,5.70
2023-04-26T05:22:10.768Z,5.70
2023-04-26T05:24:38.755Z,5.80
2023-04-26T05:27:06.195Z,6.00
2023-04-26T05:29:33.678Z,6.10
2023-04-26T05:32:01.100Z,6.00
2023-04-26T05:34:28.534Z,6.00
2023-04-26T05:36:56.555Z,6.00
2023-04-26T05:39:24.483Z,6.20
2023-04-26T05:41:51.887Z,6.20
2023-04-26T05:44:19.050Z,6.30
2023-04-26T05:46:47.518Z,6.40
2023-04-26T05:49:15.548Z,6.40
2023-04-26T05:51:42.950Z,6.40
2023-04-26T05:54:10.316Z,6.40
2023-04-26T05:56:37.510Z,6.40
2023-04-26T05:59:04.835Z,6.60
2023-04-26T06:01:32.187Z,6.60
2023-04-26T06:04:01.206Z,6.80
2023-04-26T06:06:28.859Z,6.80
2023-04-26T06:08:56.269Z,6.80
2023-04-26T06:11:23.783Z,6.80
2023-04-26T06:13:51.241Z,6.90
2023-04-26T06:16:20.159Z,7.10
2023-04-26T06:18:47.338Z,7.30
2023-04-26T06:21:14.520Z,7.40
2023-04-26T06:23:41.903Z,7.50
2023-04-26T06:26:09.771Z,7.40
2023-04-26T06:28:36.909Z,7.40
2023-04-26T06:31:04.198Z,7.40
2023-04-26T06:33:31.538Z,7.50
2023-04-26T06:35:58.932Z,7.50
2023-04-26T06:38:26.178Z,7.60
2023-04-26T06:40:53.890Z,7.40
2023-04-26T06:43:21.445Z,7.30
2023-04-26T06:45:49.156Z,7.50
2023-04-26T06:48:16.865Z,7.60
2023-04-26T06:50:44.142Z,8.10
2023-04-26T06:53:11.659Z,8.40
2023-04-26T06:55:38.838Z,8.60
2023-04-26T06:58:06.180Z,8.90
2023-04-26T07:00:33.434Z,8.90
2023-04-26T07:03:01.135Z,8.80
2023-04-26T07:05:28.397Z,8.40
2023-04-26T07:07:56.008Z,8.60
2023-04-26T07:10:23.652Z,8.60
2023-04-26T07:12:50.811Z,8.40
2023-04-26T07:15:18.162Z,8.40
2023-04-26T07:17:45.568Z,8.50
2023-04-26T07:20:15.880Z,8.60
2023-04-26T07:22:43.186Z,9.00
2023-04-26T07:25:10.583Z,8.80
2023-04-26T07:27:39.893Z,8.80
2023-04-26T07:30:07.827Z,8.90
2023-04-26T07:32:35.432Z,9.00
2023-04-26T07:35:07.604Z,9.10
2023-04-26T07:37:35.022Z,9.50
2023-04-26T07:40:02.362Z,9.50
2023-04-26T07:42:29.543Z,9.60
2023-04-26T07:44:56.858Z,9.90
2023-04-26T07:47:24.885Z,10.40
2023-04-26T07:49:54.957Z,10.50
2023-04-26T07:52:22.894Z,9.90
2023-04-26T07:54:52.133Z,10.30
2023-04-26T07:57:19.536Z,10.80
2023-04-26T07:59:46.934Z,11.00
2023-04-26T08:02:14.688Z,11.00
2023-04-26T08:04:56.170Z,10.80
2023-04-26T08:07:23.917Z,10.50
2023-04-26T08:09:51.321Z,9.90
2023-04-26T08:12:19.140Z,9.40
2023-04-26T08:14:47.374Z,9.20
2023-04-26T08:17:14.942Z,8.90
2023-04-26T08:19:42.480Z,8.90
2023-04-26T08:22:09.701Z,9.30
2023-04-26T08:24:36.988Z,9.50
2023-04-26T08:27:04.921Z,9.80
2023-04-26T08:29:32.253Z,9.80
2023-04-26T08:32:00.174Z,10.10
2023-04-26T08:34:28.573Z,10.70
2023-04-26T08:36:56.173Z,10.30
2023-04-26T08:39:23.601Z,9.50
2023-04-26T08:41:57.608Z,9.40
2023-04-26T08:44:29.684Z,9.90
2023-04-26T08:47:19.661Z,10.40
2023-04-26T08:49:54.687Z,10.40
2023-04-26T08:52:24.344Z,10.10
2023-04-26T08:54:52.485Z,9.80
2023-04-26T08:57:21.486Z,9.40
2023-04-26T08:59:49.854Z,9.60
2023-04-26T09:02:25.288Z,10.00
2023-04-26T09:04:52.897Z,10.60
2023-04-26T09:07:26.794Z,11.30
2023-04-26T09:09:59.352Z,11.50
2023-04-26T09:12:27.384Z,11.60
2023-04-26T09:14:54.786Z,11.30
2023-04-26T09:17:33.688Z,11.50
2023-04-26T09:20:01.782Z,12.30
2023-04-26T09:22:34.380Z,12.60
2023-04-26T09:25:02.781Z,12.80
2023-04-26T09:27:44.858Z,12.30
2023-04-26T09:30:20.996Z,11.50
2023-04-26T09:33:01.616Z,11.50
2023-04-26T09:35:37.126Z,11.40
2023-04-26T09:38:12.801Z,11.70
2023-04-26T09:40:41.746Z,12.20
2023-04-26T09:43:17.202Z,12.00
2023-04-26T09:45:52.477Z,11.20
2023-04-26T09:48:28.973Z,10.60
2023-04-26T09:50:59.358Z,10.40
2023-04-26T09:53:29.025Z,11.00
2023-04-26T09:55:57.284Z,11.80
2023-04-26T09:58:25.272Z,12.60
2023-04-26T10:00:52.989Z,12.60
2023-04-26T10:03:21.447Z,12.40
2023-04-26T10:05:48.990Z,12.00
2023-04-26T10:08:17.457Z,11.70
2023-04-26T10:10:46.143Z,11.90
2023-04-26T10:13:14.212Z,11.70
2023-04-26T10:15:42.412Z,11.00
2023-04-26T10:18:09.892Z,10.50
2023-04-26T10:20:43.078Z,9.80
2023-04-26T10:23:21.704Z,9.50
2023-04-26T10:25:49.958Z,9.30
2023-04-26T10:28:39.736Z,9.40
2023-04-26T10:31:08.544Z,10.30
2023-04-26T10:33:36.418Z,11.20
2023-04-26T10:36:14.001Z,11.90
2023-04-26T10:39:02.575Z,12.50
2023-04-26T10:41:36.947Z,13.00
2023-04-26T10:44:40.264Z,13.40
2023-04-26T10:47:21.599Z,12.80
2023-04-26T10:49:49.318Z,12.00
2023-04-26T10:52:24.165Z,11.00
2023-04-26T10:54:56.602Z,10.40
2023-04-26T10:57:45.099Z,10.20
2023-04-26T11:00:20.111Z,10.30
2023-04-26T11:02:52.678Z,11.30
2023-04-26T11:05:42.187Z,12.10
2023-04-26T11:08:16.125Z,13.00
2023-04-26T11:10:46.648Z,14.00
2023-04-26T11:13:13.897Z,14.00
2023-04-26T11:15:41.724Z,13.10
2023-04-26T11:18:09.029Z,12.30
2023-04-26T11:20:36.433Z,11.30
2023-04-26T11:23:04.116Z,10.60
2023-04-26T11:25:31.843Z,10.50
2023-04-26T11:28:03.571Z,10.80
2023-04-26T11:30:36.185Z,12.10
2023-04-26T11:33:06.806Z,12.80
2023-04-26T11:35:37.873Z,12.80
2023-04-26T11:38:06.021Z,12.20
2023-04-26T11:40:34.192Z,11.50
2023-04-26T11:43:04.210Z,10.90
2023-04-26T11:45:36.344Z,10.80
2023-04-26T11:48:08.928Z,10.90
2023-04-26T11:50:38.761Z,10.50
2023-04-26T11:53:08.270Z,10.30
2023-04-26T11:55:36.402Z,10.30
2023-04-26T11:58:24.584Z,10.70
2023-04-26T12:01:02.815Z,11.20
2023-04-26T12:03:38.223Z,12.00
2023-04-26T12:06:07.483Z,13.00
2023-04-26T12:08:34.719Z,13.80
2023-04-26T12:11:10.257Z,14.00
2023-04-26T12:13:40.310Z,14.70
2023-04-26T12:16:25.713Z,14.70
2023-04-26T12:18:57.373Z,13.70
2023-04-26T12:21:26.155Z,12.30
2023-04-26T12:23:54.720Z,11.60
2023-04-26T12:26:23.270Z,11.20
2023-04-26T12:28:50.727Z,10.90
2023-04-26T12:31:18.214Z,10.90
2023-04-26T12:33:45.736Z,10.80
2023-04-26T12:36:13.733Z,10.70
2023-04-26T12:38:41.541Z,10.80
2023-04-26T12:41:10.780Z,11.70
2023-04-26T12:43:38.060Z,12.70
2023-04-26T12:46:05.873Z,13.50
2023-04-26T12:48:33.320Z,13.70
2023-04-26T12:51:01.418Z,13.70
2023-04-26T12:53:28.781Z,13.60
2023-04-26T12:55:56.424Z,13.20
2023-04-26T12:58:24.188Z,13.80
2023-04-26T13:00:52.125Z,14.10
2023-04-26T13:03:19.525Z,14.50
2023-04-26T13:05:47.007Z,14.80
2023-04-26T13:08:15.676Z,14.80
2023-04-26T13:10:43.176Z,14.10
2023-04-26T13:13:10.726Z,13.60
2023-04-26T13:15:38.024Z,13.90
2023-04-26T13:18:05.551Z,14.30
2023-04-26T13:20:32.878Z,14.60
2023-04-26T13:23:00.161Z,14.20
2023-04-26T13:25:28.037Z,13.70
2023-04-26T13:27:55.765Z,13.50
2023-04-26T13:30:23.094Z,14.00
2023-04-26T13:32:50.768Z,14.40
2023-04-26T13:35:18.153Z,14.90
2023-04-26T13:37:46.549Z,14.90
2023-04-26T13:40:14.049Z,13.90
2023-04-26T13:42:41.955Z,13.70
2023-04-26T13:45:10.714Z,13.00
2023-04-26T13:47:42.504Z,12.20
2023-04-26T13:50:10.959Z,12.00
2023-04-26T13:52:40.718Z,12.10
2023-04-26T13:55:09.765Z,12.60
2023-04-26T13:57:38.705Z,12.80
2023-04-26T14:00:08.307Z,12.90
2023-04-26T14:02:35.869Z,13.30
2023-04-26T14:05:03.687Z,14.00
2023-04-26T14:07:31.251Z,14.60
2023-04-26T14:09:58.677Z,15.00
2023-04-26T14:12:26.185Z,15.60
2023-04-26T14:14:53.697Z,15.40
2023-04-26T14:17:21.091Z,14.90
2023-04-26T14:19:48.341Z,14.20
2023-04-26T14:22:17.876Z,13.90
2023-04-26T14:24:45.542Z,13.40
2023-04-26T14:27:13.181Z,12.90
2023-04-26T14:29:40.991Z,12.70
2023-04-26T14:32:08.272Z,12.40
2023-04-26T14:34:39.433Z,12.20
2023-04-26T14:37:07.389Z,11.80
2023-04-26T14:39:35.502Z,11.40
2023-04-26T14:42:04.128Z,11.10
2023-04-26T14:44:31.976Z,11.00
2023-04-26T14:46:59.290Z,10.90
2023-04-26T14:49:26.615Z,10.90
2023-04-26T14:51:54.036Z,10.80
2023-04-26T14:54:21.755Z,10.80
2023-04-26T14:56:49.284Z,10.90
2023-04-26T14:59:16.931Z,11.10
2023-04-26T15:01:44.520Z,11.20
2023-04-26T15:04:12.116Z,11.40
2023-04-26T15:06:39.902Z,11.60
2023-04-26T15:09:09.027Z,12.20
2023-04-26T15:11:36.836Z,12.40
2023-04-26T15:14:04.725Z,12.30
2023-04-26T15:16:32.368Z,12.00
2023-04-26T15:19:00.019Z,12.00
2023-04-26T15:21:29.257Z,11.90
2023-04-26T15:24:01.446Z,11.90
2023-04-26T15:26:31.306Z,12.10
2023-04-26T15:28:59.185Z,12.50
2023-04-26T15:31:26.474Z,12.40
2023-04-26T15:33:56.888Z,12.20
2023-04-26T15:36:24.620Z,12.20
2023-04-26T15:38:52.764Z,12.40
2023-04-26T15:41:20.185Z,12.70
2023-04-26T15:43:48.294Z,12.60
2023-04-26T15:46:15.910Z,12.40
2023-04-26T15:48:43.375Z,12.40
2023-04-26T15:51:10.821Z,12.30
2023-04-26T15:53:43.317Z,12.10
2023-04-26T15:56:18.175Z,12.00
2023-04-26T15:58:46.994Z,12.00
2023-04-26T16:01:16.248Z,12.00
2023-04-26T16:03:47.430Z,11.70
2023-04-26T16:06:15.724Z,11.70
2023-04-26T16:08:43.569Z,11.90
2023-04-26T16:11:11.096Z,11.90
2023-04-26T16:13:38.509Z,11.80
2023-04-26T16:16:12.068Z,11.40
2023-04-26T16:18:40.055Z,11.10
2023-04-26T16:21:11.796Z,11.20
2023-04-26T16:23:43.180Z,11.30
2023-04-26T16:26:10.673Z,11.40
2023-04-26T16:28:38.195Z,11.50
2023-04-26T16:31:07.094Z,11.40
2023-04-26T16:33:35.325Z,11.30
2023-04-26T16:36:02.727Z,11.40
2023-04-26T16:38:29.968Z,11.20
2023-04-26T16:40:58.625Z,11.00
2023-04-26T16:43:30.528Z,10.70
2023-04-26T16:46:05.645Z,10.70
2023-04-26T16:48:35.116Z,10.60
2023-04-26T16:51:06.382Z,10.40
2023-04-26T16:53:34.641Z,10.30
2023-04-26T16:56:02.155Z,10.30
2023-04-26T16:58:29.434Z,10.20
2023-04-26T17:00:56.892Z,10.20
2023-04-26T17:03:24.998Z,10.10
2023-04-26T17:05:52.653Z,10.10
2023-04-26T17:08:20.701Z,9.90
2023-04-26T17:10:52.154Z,9.80
2023-04-26T17:13:21.396Z,9.70
2023-04-26T17:15:48.958Z,9.60
2023-04-26T17:18:16.412Z,9.50
2023-04-26T17:20:43.724Z,9.50
2023-04-26T17:23:11.923Z,9.40
2023-04-26T17:25:39.318Z,9.30
2023-04-26T17:28:06.662Z,9.30
2023-04-26T17:30:33.878Z,9.30
2023-04-26T17:33:04.091Z,9.30
2023-04-26T17:35:31.537Z,9.20
2023-04-26T17:37:58.779Z,9.20
2023-04-26T17:40:26.011Z,9.10
2023-04-26T17:42:53.590Z,9.10
2023-04-26T17:45:20.829Z,9.00
2023-04-26T17:47:48.065Z,8.90
2023-04-26T17:50:16.361Z,8.80
2023-04-26T17:52:43.791Z,8.70
2023-04-26T17:55:11.739Z,8.60
2023-04-26T17:57:39.201Z,8.50
2023-04-26T18:00:07.377Z,8.50
2023-04-26T18:02:36.483Z,8.40
2023-04-26T18:05:05.153Z,8.40
2023-04-26T18:07:32.316Z,8.30
2023-04-26T18:09:59.914Z,8.30
2023-04-26T18:12:30.914Z,8.20
2023-04-26T18:14:58.581Z,8.20
2023-04-26T18:17:27.328Z,8.10
2023-04-26T18:19:54.638Z,8.00
2023-04-26T18:22:27.744Z,8.00
2023-04-26T18:24:55.561Z,8.00
2023-04-26T18:27:22.818Z,8.00
2023-04-26T18:29:50.305Z,8.00
2023-04-26T18:32:17.753Z,7.90
2023-04-26T18:34:45.153Z,7.90
2023-04-26T18:37:12.970Z,7.90
2023-04-26T18:39:40.417Z,7.80
2023-04-26T18:42:08.700Z,7.80
2023-04-26T18:44:40.335Z,7.70
2023-04-26T18:47:12.333Z,7.70
2023-04-26T18:49:40.422Z,7.60
2023-04-26T18:52:09.100Z,7.50
2023-04-26T18:54:41.086Z,7.50
2023-04-26T18:57:12.706Z,7.40
2023-04-26T18:59:43.284Z,7.40
2023-04-26T19:02:11.795Z,7.30
2023-04-26T19:04:39.392Z,7.30
2023-04-26T19:07:07.225Z,7.30
2023-04-26T19:09:43.227Z,7.30
2023-04-26T19:12:18.547Z,7.20
2023-04-26T19:14:46.017Z,7.10
2023-04-26T19:17:13.708Z,7.00
2023-04-26T19:19:40.985Z,6.90
2023-04-26T19:22:08.450Z,6.80
2023-04-26T19:24:36.020Z,6.80
2023-04-26T19:27:03.847Z,6.70
2023-04-26T19:29:31.300Z,6.60
2023-04-26T19:32:00.449Z,6.60
2023-04-26T19:34:28.436Z,6.60
2023-04-26T19:36:55.912Z,6.60
2023-04-26T19:39:23.857Z,6.50
2023-04-26T19:41:52.117Z,6.50
2023-04-26T19:44:20.685Z,6.50
2023-04-26T19:46:48.079Z,6.50
2023-04-26T19:49:15.493Z,6.50
2023-04-26T19:51:42.615Z,6.50
2023-04-26T19:54:10.159Z,6.40
2023-04-26T19:56:37.455Z,6.40
2023-04-26T19:59:04.938Z,6.30
2023-04-26T20:01:32.568Z,6.30
2023-04-26T20:04:00.654Z,6.30
2023-04-26T20:06:28.547Z,6.30
2023-04-26T20:08:56.427Z,6.30
2023-04-26T20:11:24.159Z,6.20
2023-04-26T20:13:51.983Z,6.20
2023-04-26T20:16:20.368Z,6.20
2023-04-26T20:18:47.876Z,6.10
2023-04-26T20:21:15.083Z,6.10
2023-04-26T20:23:44.350Z,5.90
2023-04-26T20:26:12.055Z,5.80
2023-04-26T20:28:40.022Z,5.80
2023-04-26T20:31:07.609Z,5.80
2023-04-26T20:33:34.903Z,5.80
2023-04-26T20:36:02.160Z,5.80
2023-04-26T20:38:29.427Z,5.70
2023-04-26T20:40:56.943Z,5.70
2023-04-26T20:43:24.764Z,5.70
2023-04-26T20:45:52.160Z,5.60
2023-04-26T20:48:19.363Z,5.60
2023-04-26T20:50:47.306Z,5.60
2023-04-26T20:53:14.426Z,5.60
2023-04-26T20:55:42.088Z,5.50
2023-04-26T20:58:09.621Z,5.50
2023-04-26T21:00:36.791Z,5.50
2023-04-26T21:03:04.794Z,5.40
2023-04-26T21:05:32.158Z,5.40
2023-04-26T21:07:59.347Z,5.40
2023-04-26T21:10:26.508Z,5.40
2023-04-26T21:12:53.753Z,5.30
2023-04-26T21:15:21.344Z,5.20
2023-04-26T21:17:48.541Z,5.10
2023-04-26T21:20:16.053Z,5.10
2023-04-26T21:22:43.297Z,5.10
2023-04-26T21:25:13.214Z,5.00
2023-04-26T21:27:41.346Z,4.90
2023-04-26T21:30:09.234Z,4.90
2023-04-26T21:32:38.140Z,4.90
2023-04-26T21:35:05.612Z,4.90
2023-04-26T21:37:32.988Z,4.70
2023-04-26T21:40:03.804Z,4.60
2023-04-26T21:42:31.877Z,4.50
2023-04-26T21:44:59.072Z,4.40
2023-04-26T21:47:26.728Z,4.40
2023-04-26T21:49:53.987Z,4.50
2023-04-26T21:52:21.324Z,4.40
2023-04-26T21:54:49.422Z,4.40
2023-04-26T21:57:17.361Z,4.30
2023-04-26T21:59:44.832Z,4.30
2023-04-26T22:02:12.140Z,4.30
2023-04-26T22:04:39.334Z,4.40
2023-04-26T22:07:06.836Z,4.40
2023-04-26T22:09:33.981Z,4.40
2023-04-26T22:12:02.544Z,4.40
2023-04-26T22:14:30.129Z,4.30
2023-04-26T22:16:57.409Z,4.20
2023-04-26T22:19:24.813Z,4.20
2023-04-26T22:21:54.403Z,4.10
2023-04-26T22:24:23.042Z,4.10
2023-04-26T22:26:50.390Z,4.20
2023-04-26T22:29:17.743Z,4.20
2023-04-26T22:31:45.363Z,4.20
2023-04-26T22:34:12.771Z,4.10
2023-04-26T22:36:40.215Z,4.10
2023-04-26T22:39:07.528Z,4.10
2023-04-26T22:41:34.797Z,4.10
2023-04-26T22:44:02.225Z,4.10
2023-04-26T22:46:29.667Z,4.20
2023-04-26T22:48:57.051Z,4.30
2023-04-26T22:51:25.328Z,4.30
2023-04-26T22:53:52.594Z,4.50
2023-04-26T22:56:19.790Z,4.50
2023-04-26T22:58:47.515Z,4.50
2023-04-26T23:01:14.801Z,4.50
2023-04-26T23:03:42.085Z,4.50
2023-04-26T23:06:10.569Z,4.50
2023-04-26T23:08:38.130Z,4.50
2023-04-26T23:11:09.329Z,4.50
2023-04-26T23:13:37.052Z,4.50
2023-04-26T23:16:07.204Z,4.50
2023-04-26T23:18:34.763Z,4.40
2023-04-26T23:21:02.095Z,4.40
2023-04-26T23:23:29.450Z,4.30
2023-04-26T23:26:00.188Z,4.30
2023-04-26T23:28:27.387Z,4.20
2023-04-26T23:30:54.584Z,4.20
2023-04-26T23:33:22.894Z,4.20
2023-04-26T23:35:51.178Z,4.20
2023-04-26T23:38:18.679Z,4.20
2023-04-26T23:40:46.560Z,4.20
2023-04-26T23:43:14.316Z,4.10
2023-04-26T23:45:48.202Z,4.20
2023-04-26T23:48:16.699Z,4.20
2023-04-26T23:50:43.980Z,4.10
2023-04-26T23:53:11.602Z,4.10
2023-04-26T23:55:39.431Z,4.10
2023-04-26T23:58:06.672Z,4.10
